TNCB/BON METAR and TAF weather

Enter ICAO airport designator
Station Type Date Time Source
TNCB METAR 2020/07/12 18:55 UTC NOAA

TNCB 121855Z 09015KT 070V130 9999 SCT016 BKN019 BKN026 31/25 Q1012


Station Type Date Time Source
TNCB Decoded METAR 2020/07/12 18:55 UTC NOAA

Flamingo Airport, Bonaire, Netherlands Antilles (TNCB) 12-09N 068-17W 7M
Jul 12, 2020 - 02:55 PM EDT / 2020.07.12 1855 UTC
Wind: from the E (090 degrees) at 17 MPH (15 KT) (direction variable):0
Visibility: greater than 7 mile(s):0
Sky conditions: mostly cloudy
Temperature: 87 F (31 C)
Heat index: 97.5 F (36.4 C):1
Dew Point: 77 F (25 C)
Relative Humidity: 70%
Pressure (altimeter): 29.88 in. Hg (1012 hPa)
ob: TNCB 121855Z 09015KT 070V130 9999 SCT016 BKN019 BKN026 31/25 Q1012
cycle: 19

Station Type Date Time Source
TNCB TAF 2020/07/12 18:27 UTC NOAA

TAF TAF TNCB 121657Z 1218/1324 09015KT 9999 SCT018 PROB30
TEMPO 1218/1221 6000 SHRA SCT018CB

Example: see airport list